Time;durP1;ratioP1;P1;durP2;ratioP2;P2;SDS_P1;SDS_P2;PMS_P1;PMS_P2;Temp;Humidity;BMP_temperature;BMP_pressure;BME280_temperature;BME280_humidity;BME280_pressure;Samples;Min_cycle;Max_cycle;Signal;HPM_P1;HPM_P2
2022/03/01 00:00:42;;;;;;;57.70;32.42;;;;;;;-3.44;100.00;100880.06;2081252;28;20309;-73
2022/03/01 00:01:44;;;;;;;61.75;32.65;;;;;;;-3.46;100.00;100882.00;2081247;28;20203;-73
2022/03/01 00:02:47;;;;;;;60.30;34.20;;;;;;;-3.46;100.00;100876.78;2081345;28;20187;-72
2022/03/01 00:03:49;;;;;;;62.67;34.63;;;;;;;-3.46;100.00;100876.78;2081411;28;20928;-72
2022/03/01 00:04:52;;;;;;;64.13;33.95;;;;;;;-3.47;100.00;100877.78;2081517;28;20207;-72
2022/03/01 00:05:54;;;;;;;70.07;34.95;;;;;;;-3.46;100.00;100871.56;2072807;28;20243;-74
2022/03/01 00:07:00;;;;;;;60.70;33.45;;;;;;;-3.47;100.00;100875.16;2081580;28;20198;-72
2022/03/01 00:08:02;;;;;;;59.17;32.33;;;;;;;-3.51;100.00;100876.44;2081255;28;20195;-72
2022/03/01 00:09:05;;;;;;;61.53;32.38;;;;;;;-3.52;100.00;100874.81;2074176;28;20765;-72
2022/03/01 00:10:07;;;;;;;70.28;34.50;;;;;;;-3.51;100.00;100873.84;2082915;28;20294;-74
2022/03/01 00:11:11;;;;;;;60.60;33.70;;;;;;;-3.53;100.00;100878.41;2074878;28;20227;-74
2022/03/01 00:12:14;;;;;;;61.10;33.95;;;;;;;-3.52;100.00;100882.63;2074970;28;20196;-74
2022/03/01 00:13:16;;;;;;;63.33;34.85;;;;;;;-3.51;100.00;100873.84;2082924;28;20225;-73
2022/03/01 00:14:17;;;;;;;61.58;34.08;;;;;;;-3.52;100.00;100880.03;2083687;28;20195;-73
2022/03/01 00:15:20;;;;;;;58.93;33.90;;;;;;;-3.50;100.00;100885.09;2083515;28;20191;-73
2022/03/01 00:16:21;;;;;;;67.22;33.88;;;;;;;-3.53;100.00;100881.00;2083851;28;20203;-73
2022/03/01 00:17:23;;;;;;;65.43;35.00;;;;;;;-3.54;100.00;100879.38;2091078;28;20222;-73
2022/03/01 00:18:24;;;;;;;66.55;35.95;;;;;;;-3.55;100.00;100877.75;2082643;28;20223;-73
2022/03/01 00:19:29;;;;;;;64.03;35.90;;;;;;;-3.57;100.00;100873.66;2075190;28;20202;-73
2022/03/01 00:20:30;;;;;;;56.05;34.85;;;;;;;-3.61;100.00;100872.34;2082783;28;20219;-72
2022/03/01 00:21:33;;;;;;;69.53;35.15;;;;;;;-3.62;100.00;100875.94;2082519;28;20281;-73
2022/03/01 00:22:34;;;;;;;62.72;34.75;;;;;;;-3.65;100.00;100874.44;2074818;28;20192;-72
2022/03/01 00:23:36;;;;;;;74.50;35.40;;;;;;;-3.66;100.00;100877.22;2082936;28;20188;-72
2022/03/01 00:24:37;;;;;;;61.53;34.30;;;;;;;-3.68;100.00;100879.97;2083262;28;20204;-73
2022/03/01 00:25:40;;;;;;;71.80;35.90;;;;;;;-3.72;100.00;100884.72;2082919;28;20199;-72
2022/03/01 00:26:41;;;;;;;67.43;36.15;;;;;;;-3.76;100.00;100878.16;2083484;28;20275;-72
2022/03/01 00:27:46;;;;;;;69.13;37.38;;;;;;;-3.75;100.00;100881.59;2082770;28;20655;-72
2022/03/01 00:28:47;;;;;;;72.82;39.28;;;;;;;-3.76;100.00;100880.78;2082830;28;20188;-74
2022/03/01 00:29:50;;;;;;;87.95;39.13;;;;;;;-3.77;100.00;100873.94;2083870;28;20283;-73
2022/03/01 00:30:52;;;;;;;65.63;38.65;;;;;;;-3.76;100.00;100879.94;2082738;28;20203;-73
2022/03/01 00:31:55;;;;;;;79.93;38.78;;;;;;;-3.76;100.00;100874.75;2075000;28;20192;-73
2022/03/01 00:32:56;;;;;;;69.43;37.70;;;;;;;-3.77;100.00;100873.94;2083048;28;20199;-73
2022/03/01 00:33:59;;;;;;;67.82;36.60;;;;;;;-3.77;100.00;100873.09;2083333;28;20203;-73
2022/03/01 00:35:01;;;;;;;75.88;37.60;;;;;;;-3.78;100.00;100872.28;2083454;28;20246;-73
2022/03/01 00:36:03;;;;;;;77.20;38.45;;;;;;;-3.79;100.00;100872.47;2082487;28;20633;-73
2022/03/01 00:37:07;;;;;;;84.10;40.90;;;;;;;-3.80;100.00;100870.81;2082686;28;20211;-73
2022/03/01 00:38:10;;;;;;;78.65;42.22;;;;;;;-3.83;100.00;100871.94;2082977;28;20639;-73
2022/03/01 00:39:12;;;;;;;81.25;41.88;;;;;;;-3.82;100.00;100877.97;2082948;28;20674;-73
2022/03/01 00:40:13;;;;;;;84.82;43.08;;;;;;;-3.85;100.00;100871.28;2083817;28;20208;-73
2022/03/01 00:41:16;;;;;;;96.65;45.83;;;;;;;-3.83;100.00;100879.75;2082688;28;20706;-73
2022/03/01 00:42:18;;;;;;;97.18;47.42;;;;;;;-3.81;100.00;100882.25;2082716;28;20200;-74
2022/03/01 00:43:21;;;;;;;89.13;47.42;;;;;;;-3.80;100.00;100882.06;2083767;28;20713;-74
2022/03/01 00:44:24;;;;;;;97.53;46.83;;;;;;;-3.80;100.00;100876.84;2083471;28;20202;-73
2022/03/01 00:45:26;;;;;;;98.13;46.55;;;;;;;-3.79;100.00;100878.50;2083573;28;20184;-73
2022/03/01 00:46:28;;;;;;;93.28;47.15;;;;;;;-3.78;100.00;100872.28;2083542;28;20191;-73
2022/03/01 00:47:30;;;;;;;103.47;50.13;;;;;;;-3.76;100.00;100877.34;2090774;28;20205;-73
2022/03/01 00:48:32;;;;;;;97.00;49.30;;;;;;;-3.77;100.00;100883.53;2090741;28;20211;-73
2022/03/01 00:49:35;;;;;;;101.88;48.83;;;;;;;-3.76;100.00;100883.38;2083267;28;20274;-73
2022/03/01 00:50:36;;;;;;;103.32;50.10;;;;;;;-3.75;100.00;100874.56;2082585;28;20254;-73
2022/03/01 00:51:39;;;;;;;107.50;49.20;;;;;;;-3.75;100.00;100876.38;2082303;28;20227;-73
2022/03/01 00:52:40;;;;;;;102.22;50.85;;;;;;;-3.76;100.00;100872.13;2083253;28;20196;-73
2022/03/01 00:53:43;;;;;;;108.15;49.90;;;;;;;-3.77;100.00;100868.72;2083188;28;20184;-73
2022/03/01 00:54:45;;;;;;;109.10;51.67;;;;;;;-3.79;100.00;100865.44;2082793;28;20203;-73
2022/03/01 00:55:46;;;;;;;100.82;52.40;;;;;;;-3.77;100.00;100873.09;2082652;28;20270;-73
2022/03/01 00:56:49;;;;;;;106.00;52.28;;;;;;;-3.78;100.00;100866.25;2082418;28;20267;-73
2022/03/01 00:57:49;;;;;;;114.68;54.03;;;;;;;-3.78;100.00;100868.88;2082581;28;20245;-73
2022/03/01 00:58:53;;;;;;;110.50;52.37;;;;;;;-3.78;100.00;100867.06;2083123;28;20258;-73
2022/03/01 00:59:57;;;;;;;99.53;48.60;;;;;;;-3.81;100.00;100871.81;2083214;28;20553;-73
2022/03/01 01:01:00;;;;;;;105.82;51.70;;;;;;;-3.83;100.00;100858.91;2083190;28;20202;-73
2022/03/01 01:02:02;;;;;;;98.75;50.65;;;;;;;-3.86;100.00;100868.84;2083132;28;20253;-73
2022/03/01 01:03:04;;;;;;;105.95;50.35;;;;;;;-3.90;100.00;100864.94;2083306;28;20651;-73
2022/03/01 01:04:06;;;;;;;100.05;50.75;;;;;;;-3.90;100.00;100872.75;2083177;28;20191;-73
2022/03/01 01:05:10;;;;;;;97.85;49.90;;;;;;;-3.92;100.00;100869.47;2083134;28;20188;-73
2022/03/01 01:06:11;;;;;;;107.15;50.40;;;;;;;-3.95;100.00;100870.59;2082347;28;20704;-74
2022/03/01 01:07:14;;;;;;;102.07;51.55;;;;;;;-3.98;100.00;100868.31;2082537;28;20187;-73
2022/03/01 01:08:15;;;;;;;106.88;50.10;;;;;;;-3.97;100.00;100872.56;2083086;28;20226;-73
2022/03/01 01:09:18;;;;;;;91.90;47.50;;;;;;;-3.99;100.00;100877.13;2090577;28;20199;-73
2022/03/01 01:10:20;;;;;;;91.13;48.10;;;;;;;-4.01;100.00;100882.47;2090562;28;20225;-73
2022/03/01 01:11:23;;;;;;;96.00;46.83;;;;;;;-4.02;100.00;100885.22;2082367;28;20195;-73
2022/03/01 01:12:27;;;;;;;104.50;49.70;;;;;;;-4.03;100.00;100884.41;2074318;28;20238;-73
2022/03/01 01:13:30;;;;;;;103.57;49.20;;;;;;;-4.03;100.00;100878.38;2082625;28;20226;-73
2022/03/01 01:14:33;;;;;;;110.75;51.85;;;;;;;-4.04;100.00;100876.75;2083046;28;20183;-73
2022/03/01 01:15:35;;;;;;;102.35;50.70;;;;;;;-4.03;100.00;100881.00;2082986;28;20188;-73
2022/03/01 01:16:37;;;;;;;101.07;49.10;;;;;;;-4.02;100.00;100882.63;2083040;28;20215;-74
2022/03/01 01:17:40;;;;;;;89.82;48.33;;;;;;;-4.02;100.00;100887.84;2090565;28;20203;-73
2022/03/01 01:18:43;;;;;;;105.32;50.70;;;;;;;-4.03;100.00;100888.81;2090427;28;20294;-74
2022/03/01 01:19:45;;;;;;;99.40;49.60;;;;;;;-4.04;100.00;100885.38;2083125;28;20673;-73
2022/03/01 01:20:48;;;;;;;96.28;49.35;;;;;;;-4.03;100.00;100888.81;2082419;28;20221;-73
2022/03/01 01:23:11;;;;;;;98.18;46.33;;;;;;;-4.05;100.00;100888.97;2082409;28;20187;-73
2022/03/01 01:24:12;;;;;;;96.72;46.65;;;;;;;-4.06;100.00;100889.13;2082465;28;20192;-73
2022/03/01 01:25:18;;;;;;;85.93;45.30;;;;;;;-4.05;100.00;100886.38;2082190;28;20199;-73
2022/03/01 01:26:20;;;;;;;84.63;45.33;;;;;;;-4.06;100.00;100882.13;2074854;28;20259;-73
2022/03/01 01:27:21;;;;;;;89.37;45.13;;;;;;;-4.06;100.00;100889.94;2082508;28;20187;-73
2022/03/01 01:28:24;;;;;;;91.50;46.55;;;;;;;-4.06;100.00;100892.56;2083061;28;20462;-73
2022/03/01 01:29:25;;;;;;;98.55;46.55;;;;;;;-4.07;100.00;100887.50;2082912;28;20666;-73
2022/03/01 01:30:31;;;;;;;98.38;48.38;;;;;;;-4.10;100.00;100888.59;2090394;28;20738;-73
2022/03/01 01:31:32;;;;;;;94.43;46.33;;;;;;;-4.08;100.00;100891.09;2082226;28;20234;-73
2022/03/01 01:32:35;;;;;;;86.47;45.15;;;;;;;-4.10;100.00;100893.81;2082301;28;20203;-73
2022/03/01 01:33:37;;;;;;;89.05;45.72;;;;;;;-4.11;100.00;100886.97;2082184;28;20283;-73
2022/03/01 01:34:38;;;;;;;93.00;45.28;;;;;;;-4.12;100.00;100885.34;2082136;28;20238;-73
2022/03/01 01:35:40;;;;;;;90.70;46.73;;;;;;;-4.14;100.00;100883.88;2082944;28;20172;-73
2022/03/01 01:36:42;;;;;;;97.68;46.50;;;;;;;-4.19;100.00;100880.91;2082455;28;20461;-73
2022/03/01 01:37:45;;;;;;;92.90;46.05;;;;;;;-4.18;100.00;100885.16;2082877;28;20192;-73
2022/03/01 01:38:46;;;;;;;89.40;44.88;;;;;;;-4.20;100.00;100882.69;2082370;28;20651;-73
2022/03/01 01:39:48;;;;;;;97.93;46.50;;;;;;;-4.22;100.00;100882.03;2082327;28;20616;-74
2022/03/01 01:40:51;;;;;;;87.88;45.00;;;;;;;-4.27;100.00;100881.69;2083116;28;20655;-73
2022/03/01 01:41:52;;;;;;;79.30;44.03;;;;;;;-4.28;100.00;100880.03;2082252;28;20580;-74
2022/03/01 01:42:55;;;;;;;87.22;45.67;;;;;;;-4.32;100.00;100873.53;2082402;28;20204;-73
2022/03/01 01:43:56;;;;;;;83.43;43.95;;;;;;;-4.34;100.00;100878.09;2082333;28;20191;-73
2022/03/01 01:45:00;;;;;;;84.82;44.15;;;;;;;-4.34;100.00;100878.09;2090332;28;20754;-73
2022/03/01 01:46:05;;;;;;;77.63;40.83;;;;;;;-4.35;100.00;100885.03;2082119;28;20231;-73
2022/03/01 01:47:08;;;;;;;76.30;38.45;;;;;;;-4.35;100.00;100884.22;2074779;28;20235;-73
2022/03/01 01:48:13;;;;;;;67.97;38.40;;;;;;;-4.34;100.00;100871.06;2074117;28;20207;-73
2022/03/01 01:49:15;;;;;;;63.10;38.63;;;;;;;-4.35;100.00;100873.81;2082270;28;20238;-74
2022/03/01 01:50:18;;;;;;;71.68;38.13;;;;;;;-4.34;100.00;100867.66;2090228;28;20199;-73
2022/03/01 01:51:19;;;;;;;68.88;36.35;;;;;;;-4.31;100.00;100873.38;2081426;28;20705;-73
2022/03/01 01:52:22;;;;;;;61.17;35.97;;;;;;;-4.29;100.00;100874.03;2082159;28;20191;-73
2022/03/01 01:53:25;;;;;;;67.95;36.95;;;;;;;-4.25;100.00;100871.94;2082137;28;20211;-73
2022/03/01 01:54:28;;;;;;;74.20;35.75;;;;;;;-4.22;100.00;100878.63;2082227;28;20670;-73
2022/03/01 01:55:30;;;;;;;68.90;36.95;;;;;;;-4.24;100.00;100870.97;2082897;28;20673;-74
2022/03/01 01:56:33;;;;;;;65.90;36.63;;;;;;;-4.22;100.00;100879.44;2082853;28;20601;-73
2022/03/01 01:57:35;;;;;;;61.05;35.63;;;;;;;-4.21;100.00;100875.84;2082960;28;20656;-73
2022/03/01 01:58:38;;;;;;;63.60;35.75;;;;;;;-4.21;100.00;100880.25;2082596;28;20188;-73
2022/03/01 01:59:39;;;;;;;65.75;36.53;;;;;;;-4.20;100.00;100881.88;2082724;28;20280;-73
2022/03/01 02:00:41;;;;;;;75.55;37.17;;;;;;;-4.20;100.00;100880.09;2082678;28;20530;-73
2022/03/01 02:01:45;;;;;;;65.18;36.67;;;;;;;-4.21;100.00;100875.84;2082950;28;20245;-73
2022/03/01 02:02:49;;;;;;;58.22;35.65;;;;;;;-4.21;100.00;100881.06;2082026;28;20219;-73
2022/03/01 02:03:51;;;;;;;66.68;38.10;;;;;;;-4.20;100.00;100874.06;2074218;28;20596;-73
2022/03/01 02:04:55;;;;;;;65.40;37.55;;;;;;;-4.20;100.00;100881.88;2082025;28;20229;-74
2022/03/01 02:05:56;;;;;;;74.95;37.85;;;;;;;-4.19;100.00;100878.31;2081371;28;20298;-73
2022/03/01 02:06:59;;;;;;;63.53;35.30;;;;;;;-4.23;100.00;100863.97;2081967;28;20202;-73
2022/03/01 02:08:08;;;;;;;63.22;35.47;;;;;;;-4.20;100.00;100877.47;2082095;28;20238;-74
2022/03/01 02:09:09;;;;;;;57.28;33.50;;;;;;;-4.19;100.00;100879.13;2082790;28;20230;-73
2022/03/01 02:10:12;;;;;;;64.47;34.08;;;;;;;-4.17;100.00;100882.41;2082020;28;20187;-73
2022/03/01 02:11:14;;;;;;;61.25;35.00;;;;;;;-4.18;100.00;100874.72;2082001;28;20196;-73
2022/03/01 02:12:16;;;;;;;66.68;34.67;;;;;;;-4.18;100.00;100874.72;2082579;28;20226;-73
2022/03/01 02:13:19;;;;;;;55.50;33.33;;;;;;;-4.14;100.00;100887.28;2082552;28;20262;-73
2022/03/01 02:14:22;;;;;;;64.90;35.03;;;;;;;-4.15;100.00;100884.84;2082181;28;20241;-73
2022/03/01 02:15:28;;;;;;;57.28;32.88;;;;;;;-4.15;100.00;100877.03;2082045;28;20650;-74
2022/03/01 02:16:31;;;;;;;60.13;33.00;;;;;;;-4.17;100.00;100876.34;2081951;28;20188;-74
2022/03/01 02:17:36;;;;;;;64.82;33.70;;;;;;;-4.16;100.00;100875.41;2082014;28;20191;-73
2022/03/01 02:18:37;;;;;;;62.45;34.13;;;;;;;-4.17;100.00;100885.00;2082530;28;20715;-73
2022/03/01 02:19:40;;;;;;;64.93;34.45;;;;;;;-4.19;100.00;100880.91;2082626;28;20658;-73
2022/03/01 02:20:44;;;;;;;59.67;32.47;;;;;;;-4.22;100.00;100878.63;2082303;28;20207;-74
2022/03/01 02:21:46;;;;;;;64.47;34.47;;;;;;;-4.24;100.00;100875.34;2081697;28;20219;-74
2022/03/01 02:22:54;;;;;;;60.33;34.88;;;;;;;-4.27;100.00;100877.28;2081863;28;20191;-73
2022/03/01 02:23:56;;;;;;;60.40;34.00;;;;;;;-4.29;100.00;100874.03;2082180;28;20189;-74
2022/03/01 02:24:58;;;;;;;63.75;34.97;;;;;;;-4.33;100.00;100866.69;2082728;28;20582;-73
2022/03/01 02:25:59;;;;;;;67.03;34.85;;;;;;;-4.33;100.00;100875.31;2082133;28;20241;-74
2022/03/01 02:27:05;;;;;;;80.43;40.00;;;;;;;-4.37;100.00;100871.38;2081908;28;20733;-74
2022/03/01 02:28:06;;;;;;;73.95;38.75;;;;;;;-4.40;100.00;100869.09;2082036;28;20591;-74
2022/03/01 02:29:08;;;;;;;79.50;42.47;;;;;;;-4.42;100.00;100873.63;2082101;28;20199;-73
2022/03/01 02:30:10;;;;;;;74.75;39.60;;;;;;;-4.45;100.00;100868.72;2081875;28;20191;-74
2022/03/01 02:31:12;;;;;;;66.22;37.28;;;;;;;-4.47;100.00;100868.06;2081797;28;20199;-74
2022/03/01 02:32:14;;;;;;;72.65;39.00;;;;;;;-4.49;100.00;100870.00;2081343;28;20200;-73
2022/03/01 02:33:17;;;;;;;67.13;37.13;;;;;;;-4.52;100.00;100869.47;2073104;28;20561;-74
2022/03/01 02:34:19;;;;;;;74.00;38.08;;;;;;;-4.53;100.00;100873.06;2073855;28;20689;-73
2022/03/01 02:35:22;;;;;;;79.13;40.47;;;;;;;-4.57;100.00;100868.16;2081783;28;20234;-74
2022/03/01 02:36:25;;;;;;;69.40;37.67;;;;;;;-4.58;100.00;100863.94;2081539;28;20223;-74
2022/03/01 02:37:29;;;;;;;68.20;38.55;;;;;;;-4.58;100.00;100863.94;2081725;28;20196;-74
2022/03/01 02:38:31;;;;;;;78.22;42.20;;;;;;;-4.58;100.00;100868.31;2081875;28;20207;-74
2022/03/01 02:39:33;;;;;;;73.20;42.03;;;;;;;-4.61;100.00;100869.41;2082522;28;20289;-73
2022/03/01 02:40:35;;;;;;;71.65;36.75;;;;;;;-4.63;100.00;100865.34;2082029;28;20207;-74
2022/03/01 02:41:37;;;;;;;66.28;37.05;;;;;;;-4.64;100.00;100868.91;2073984;28;20196;-73
2022/03/01 02:42:42;;;;;;;65.75;36.97;;;;;;;-4.66;100.00;100863.88;2081669;28;20588;-73
2022/03/01 02:43:45;;;;;;;66.05;35.63;;;;;;;-4.64;100.00;100858.50;2074427;28;20215;-74
2022/03/01 02:44:50;;;;;;;60.20;35.03;;;;;;;-4.61;100.00;100863.41;2074342;28;20211;-74
2022/03/01 02:45:53;;;;;;;59.33;35.33;;;;;;;-4.58;100.00;100865.72;2081668;28;20708;-74
2022/03/01 02:46:55;;;;;;;65.22;36.05;;;;;;;-4.55;100.00;100862.78;2081868;28;20211;-73
2022/03/01 02:47:57;;;;;;;74.07;37.83;;;;;;;-4.55;100.00;100868.81;2090032;28;20202;-73
2022/03/01 02:48:59;;;;;;;67.47;35.90;;;;;;;-4.55;100.00;100868.00;2082305;28;20654;-73
2022/03/01 02:50:03;;;;;;;63.25;34.88;;;;;;;-4.56;100.00;100869.78;2082315;28;20222;-73
2022/03/01 02:51:05;;;;;;;59.35;33.10;;;;;;;-4.58;100.00;100869.13;2089294;28;20226;-73
2022/03/01 02:52:11;;;;;;;66.87;35.27;;;;;;;-4.59;100.00;100866.69;2081694;28;20199;-73
2022/03/01 02:53:13;;;;;;;62.20;33.15;;;;;;;-4.57;100.00;100872.56;2081616;28;20269;-74
2022/03/01 02:54:15;;;;;;;58.85;34.17;;;;;;;-4.57;100.00;100875.97;2081704;28;20249;-74
2022/03/01 02:55:18;;;;;;;62.58;33.65;;;;;;;-4.56;100.00;100882.81;2081497;28;20203;-74
2022/03/01 02:56:19;;;;;;;58.08;34.65;;;;;;;-4.58;100.00;100866.53;2081917;28;20208;-74
2022/03/01 02:57:21;;;;;;;66.00;34.25;;;;;;;-4.60;100.00;100868.47;2081537;28;20682;-74
2022/03/01 02:58:23;;;;;;;60.65;34.25;;;;;;;-4.58;100.00;100874.34;2073586;28;20679;-74
2022/03/01 02:59:25;;;;;;;67.57;36.45;;;;;;;-4.58;100.00;100878.75;2073445;28;20212;-74
2022/03/01 03:00:26;;;;;;;63.08;35.88;;;;;;;-4.63;100.00;100866.16;2073526;28;20594;-74
2022/03/01 03:01:29;;;;;;;63.35;35.10;;;;;;;-4.63;100.00;100865.34;2081674;28;20195;-74
2022/03/01 03:02:32;;;;;;;67.80;35.20;;;;;;;-4.64;100.00;100869.72;2081463;28;20689;-74
2022/03/01 03:03:34;;;;;;;61.85;35.08;;;;;;;-4.68;100.00;100863.22;2081767;28;20559;-74
2022/03/01 03:04:36;;;;;;;65.28;35.78;;;;;;;-4.71;100.00;100865.28;2082253;28;20195;-74
2022/03/01 03:05:39;;;;;;;62.00;35.22;;;;;;;-4.72;100.00;100861.88;2089725;28;20264;-73
2022/03/01 03:06:41;;;;;;;58.75;34.97;;;;;;;-4.74;100.00;100863.81;2081112;28;20259;-74
2022/03/01 03:07:44;;;;;;;65.15;34.38;;;;;;;-4.76;100.00;100865.75;2081667;28;20701;-74
2022/03/01 03:08:47;;;;;;;69.07;38.38;;;;;;;-4.77;100.00;100869.34;2081842;28;20208;-73
2022/03/01 03:09:48;;;;;;;66.57;36.53;;;;;;;-4.81;100.00;100865.38;2081595;28;20574;-73
2022/03/01 03:10:50;;;;;;;63.38;35.25;;;;;;;-4.80;100.00;100867.00;2082354;28;20624;-73
2022/03/01 03:11:51;;;;;;;61.95;34.33;;;;;;;-4.82;100.00;100868.16;2082475;28;20558;-74
2022/03/01 03:12:56;;;;;;;68.25;36.45;;;;;;;-4.85;100.00;100867.47;2082416;28;20192;-73
2022/03/01 03:13:57;;;;;;;65.70;35.55;;;;;;;-4.87;100.00;100863.38;2082191;28;20657;-74
2022/03/01 03:14:59;;;;;;;64.47;34.80;;;;;;;-4.88;100.00;100877.38;2089664;28;20198;-73
2022/03/01 03:16:01;;;;;;;65.78;37.67;;;;;;;-4.92;100.00;100870.84;2089551;28;20202;-74
2022/03/01 03:17:05;;;;;;;68.20;34.72;;;;;;;-4.95;100.00;100858.09;2082163;28;20191;-73
2022/03/01 03:18:06;;;;;;;65.75;35.53;;;;;;;-4.95;100.00;100865.91;2082222;28;20192;-73
2022/03/01 03:19:15;;;;;;;70.22;36.65;;;;;;;-4.97;100.00;100865.25;2081628;28;20196;-73
2022/03/01 03:20:18;;;;;;;66.82;36.63;;;;;;;-5.00;100.00;100862.97;2073926;28;20658;-74
2022/03/01 03:21:20;;;;;;;66.38;35.67;;;;;;;-5.03;100.00;100858.88;2081111;28;20220;-73
2022/03/01 03:22:23;;;;;;;66.95;37.38;;;;;;;-5.02;100.00;100865.72;2081466;28;20612;-74
2022/03/01 03:23:26;;;;;;;73.80;39.55;;;;;;;-5.08;100.00;100858.50;2073494;28;20203;-74
2022/03/01 03:24:29;;;;;;;80.05;40.65;;;;;;;-5.07;100.00;100861.91;2081516;28;20192;-73
2022/03/01 03:25:31;;;;;;;82.50;41.20;;;;;;;-5.10;100.00;100862.22;2082298;28;20531;-73
2022/03/01 03:26:34;;;;;;;79.47;42.63;;;;;;;-5.13;100.00;100860.72;2082181;28;20184;-73
2022/03/01 03:27:35;;;;;;;78.55;42.30;;;;;;;-5.19;100.00;100859.56;2082135;28;20607;-73
2022/03/01 03:28:38;;;;;;;74.57;41.25;;;;;;;-5.19;100.00;100854.34;2082129;28;20188;-73
2022/03/01 03:29:39;;;;;;;87.45;43.88;;;;;;;-5.22;100.00;100862.44;2081402;28;20199;-73
2022/03/01 03:30:42;;;;;;;85.47;43.85;;;;;;;-5.24;100.00;100859.19;2081483;28;20195;-73
2022/03/01 03:31:43;;;;;;;75.82;39.80;;;;;;;-5.27;100.00;100861.28;2081623;28;20222;-73
2022/03/01 03:32:47;;;;;;;82.47;42.08;;;;;;;-5.29;100.00;100856.22;2081632;28;20179;-74
2022/03/01 03:33:49;;;;;;;92.68;44.80;;;;;;;-5.32;100.00;100853.91;2082263;28;20559;-73
2022/03/01 03:34:50;;;;;;;82.40;41.58;;;;;;;-5.35;100.00;100853.38;2081792;28;20231;-73
2022/03/01 03:35:54;;;;;;;76.28;41.70;;;;;;;-5.36;100.00;100847.38;2089657;28;20191;-73
2022/03/01 03:36:55;;;;;;;83.05;43.65;;;;;;;-5.37;100.00;100848.34;2080924;28;20231;-74
2022/03/01 03:37:57;;;;;;;85.72;44.63;;;;;;;-5.39;100.00;100852.84;2081390;28;20578;-73
2022/03/01 03:39:00;;;;;;;87.75;43.55;;;;;;;-5.41;100.00;100850.41;2089526;28;20190;-73
2022/03/01 03:40:03;;;;;;;82.63;43.30;;;;;;;-5.42;100.00;100851.38;2082023;28;20234;-74
2022/03/01 03:41:05;;;;;;;86.40;45.08;;;;;;;-5.42;100.00;100847.97;2081982;28;20191;-73
2022/03/01 03:42:07;;;;;;;90.30;44.65;;;;;;;-5.44;100.00;100849.88;2082137;28;20570;-73
2022/03/01 03:43:09;;;;;;;82.35;43.38;;;;;;;-5.48;100.00;100840.75;2082303;28;20191;-73
2022/03/01 03:44:12;;;;;;;81.97;44.83;;;;;;;-5.46;100.00;100850.03;2083028;28;20183;-73
2022/03/01 03:45:16;;;;;;;86.47;43.22;;;;;;;-5.47;100.00;100845.00;2083677;28;20219;-74
2022/03/01 03:46:18;;;;;;;83.82;43.03;;;;;;;-5.45;100.00;100853.47;2083767;28;20275;-73
2022/03/01 03:47:19;;;;;;;83.07;43.05;;;;;;;-5.43;100.00;100848.94;2083871;28;20203;-73
2022/03/01 03:48:22;;;;;;;80.78;42.83;;;;;;;-5.45;100.00;100849.06;2083991;28;20195;-73
2022/03/01 03:49:24;;;;;;;70.28;40.03;;;;;;;-5.44;100.00;100855.91;2083068;28;20207;-74
2022/03/01 03:50:27;;;;;;;89.75;43.13;;;;;;;-5.46;100.00;100849.22;2083030;28;20196;-73
2022/03/01 03:51:29;;;;;;;87.05;42.72;;;;;;;-5.46;100.00;100841.44;2082608;28;20219;-73
2022/03/01 03:52:31;;;;;;;84.95;41.03;;;;;;;-5.47;100.00;100852.81;2083129;28;20212;-73
2022/03/01 03:53:35;;;;;;;77.63;39.63;;;;;;;-5.47;100.00;100845.00;2083925;28;20256;-73
2022/03/01 03:54:38;;;;;;;69.32;38.47;;;;;;;-5.44;100.00;100845.50;2083266;28;20249;-73
2022/03/01 03:55:40;;;;;;;87.25;42.35;;;;;;;-5.43;100.00;100846.31;2083100;28;20573;-73
2022/03/01 03:56:41;;;;;;;74.05;41.22;;;;;;;-5.42;100.00;100840.16;2083253;28;20206;-73
2022/03/01 03:57:44;;;;;;;82.78;42.38;;;;;;;-5.44;100.00;100840.31;2083156;28;20211;-73
2022/03/01 03:58:46;;;;;;;73.55;39.95;;;;;;;-5.43;100.00;100843.72;2091079;28;20657;-73
2022/03/01 03:59:49;;;;;;;78.82;41.35;;;;;;;-5.43;100.00;100838.53;2083253;28;20258;-73
2022/03/01 04:00:50;;;;;;;78.03;42.35;;;;;;;-5.43;100.00;100847.13;2083100;28;20215;-73
2022/03/01 04:01:52;;;;;;;81.43;43.13;;;;;;;-5.43;100.00;100838.53;2083666;28;20199;-73
2022/03/01 04:02:53;;;;;;;89.72;44.67;;;;;;;-5.43;100.00;100835.91;2083642;28;20187;-74
2022/03/01 04:03:58;;;;;;;86.78;44.72;;;;;;;-5.50;100.00;100833.09;2083734;28;20241;-73
2022/03/01 04:04:59;;;;;;;74.60;43.40;;;;;;;-5.49;100.00;100844.31;2083914;28;20184;-73
2022/03/01 04:06:03;;;;;;;85.88;43.35;;;;;;;-5.51;100.00;100843.66;2083134;28;20271;-73
2022/03/01 04:07:05;;;;;;;89.72;44.95;;;;;;;-5.54;100.00;100838.75;2083858;28;20172;-73
2022/03/01 04:08:08;;;;;;;80.93;43.80;;;;;;;-5.56;100.00;100844.09;2083674;28;20199;-73
2022/03/01 04:09:09;;;;;;;92.05;46.20;;;;;;;-5.61;100.00;100835.91;2083611;28;20253;-73
2022/03/01 04:10:13;;;;;;;90.25;46.30;;;;;;;-5.61;100.00;100845.50;2083815;28;20701;-73
2022/03/01 04:11:16;;;;;;;86.80;44.67;;;;;;;-5.62;100.00;100841.25;2083217;28;20697;-73
2022/03/01 04:12:18;;;;;;;88.43;44.95;;;;;;;-5.61;100.00;100842.91;2075074;28;20701;-73
2022/03/01 04:13:20;;;;;;;91.10;45.05;;;;;;;-5.65;100.00;100841.53;2082887;28;20589;-73
2022/03/01 04:14:21;;;;;;;81.05;42.63;;;;;;;-5.65;100.00;100839.75;2083796;28;20191;-73
2022/03/01 04:15:24;;;;;;;82.05;43.40;;;;;;;-5.65;100.00;100839.75;2083529;28;20222;-73
2022/03/01 04:16:27;;;;;;;83.43;43.78;;;;;;;-5.67;100.00;100839.09;2083668;28;20195;-73
2022/03/01 04:17:30;;;;;;;86.20;45.83;;;;;;;-5.68;100.00;100845.25;2083656;28;20183;-73
2022/03/01 04:18:31;;;;;;;87.18;44.47;;;;;;;-5.70;100.00;100845.41;2083438;28;20545;-73
2022/03/01 04:19:33;;;;;;;80.17;43.77;;;;;;;-5.65;100.00;100841.53;2083054;28;20295;-73
2022/03/01 04:20:34;;;;;;;80.82;45.65;;;;;;;-5.62;100.00;100836.06;2082901;28;20572;-73
2022/03/01 04:21:36;;;;;;;80.50;44.67;;;;;;;-5.57;100.00;100834.63;2083190;28;20302;-73
2022/03/01 04:22:37;;;;;;;89.22;44.90;;;;;;;-5.61;100.00;100829.91;2083509;28;20188;-73
2022/03/01 04:23:40;;;;;;;85.00;45.35;;;;;;;-5.66;100.00;100829.50;2082783;28;20662;-73
2022/03/01 04:24:41;;;;;;;84.47;44.17;;;;;;;-5.66;100.00;100829.50;2082928;28;20187;-73
2022/03/01 04:25:45;;;;;;;92.95;45.28;;;;;;;-5.62;100.00;100828.25;2083388;28;20202;-73
2022/03/01 04:26:46;;;;;;;94.57;45.95;;;;;;;-5.63;100.00;100824.84;2083397;28;20202;-73
2022/03/01 04:27:48;;;;;;;85.47;45.10;;;;;;;-5.65;100.00;100825.94;2083585;28;20271;-74
2022/03/01 04:28:50;;;;;;;92.80;45.45;;;;;;;-5.71;100.00;100822.16;2083403;28;20180;-73
2022/03/01 04:29:52;;;;;;;83.72;44.88;;;;;;;-5.78;100.00;100819.31;2083371;28;20270;-73
2022/03/01 04:30:54;;;;;;;92.88;46.67;;;;;;;-5.80;100.00;100818.66;2083065;28;20204;-73
2022/03/01 04:31:56;;;;;;;84.60;46.20;;;;;;;-5.84;100.00;100811.28;2082762;28;20188;-74
2022/03/01 04:32:59;;;;;;;85.65;44.78;;;;;;;-5.88;100.00;100815.97;2082589;28;20203;-73
2022/03/01 04:34:00;;;;;;;86.28;44.95;;;;;;;-5.90;100.00;100817.13;2090897;28;20195;-73
2022/03/01 04:35:04;;;;;;;79.13;45.97;;;;;;;-5.94;100.00;100813.16;2083141;28;20694;-73
2022/03/01 04:36:06;;;;;;;86.85;45.25;;;;;;;-5.96;100.00;100815.09;2082139;28;20214;-73
2022/03/01 04:37:09;;;;;;;81.40;44.55;;;;;;;-5.99;100.00;100813.63;2083047;28;20172;-73
2022/03/01 04:38:10;;;;;;;94.43;45.10;;;;;;;-5.99;100.00;100816.22;2082665;28;20265;-74
2022/03/01 04:39:13;;;;;;;82.53;45.35;;;;;;;-5.99;100.00;100813.63;2082744;28;20187;-73
2022/03/01 04:40:16;;;;;;;80.90;45.05;;;;;;;-5.99;100.00;100803.22;2082779;28;20216;-73
2022/03/01 04:41:21;;;;;;;92.53;45.72;;;;;;;-6.00;100.00;100804.97;2074956;28;20295;-73
2022/03/01 04:42:22;;;;;;;91.10;46.78;;;;;;;-6.00;100.00;100814.56;2082792;28;20191;-74